createdAt,value
2022-08-23T00:02:23.547Z,3.40
2022-08-23T00:07:28.076Z,3.17
2022-08-23T00:12:33.949Z,3.60
2022-08-23T00:17:36.829Z,2.97
2022-08-23T00:22:40.840Z,2.90
2022-08-23T00:27:45.507Z,3.45
2022-08-23T00:32:48.674Z,3.42
2022-08-23T00:38:31.744Z,3.17
2022-08-23T00:43:35.609Z,3.22
2022-08-23T00:48:40.517Z,2.78
2022-08-23T00:53:47.551Z,2.70
2022-08-23T00:58:51.936Z,2.97
2022-08-23T01:04:04.459Z,2.90
2022-08-23T01:09:12.189Z,3.33
2022-08-23T01:14:20.948Z,3.17
2022-08-23T01:19:31.695Z,2.83
2022-08-23T01:24:59.588Z,2.90
2022-08-23T01:30:05.830Z,2.85
2022-08-23T01:35:09.501Z,3.10
2022-08-23T01:40:14.399Z,3.30
2022-08-23T01:45:17.838Z,3.15
2022-08-23T01:50:21.260Z,3.53
2022-08-23T01:55:25.963Z,3.05
2022-08-23T02:00:32.823Z,3.30
2022-08-23T02:05:37.253Z,2.63
2022-08-23T02:10:41.750Z,3.00
2022-08-23T02:15:45.620Z,2.97
2022-08-23T02:20:50.940Z,3.05
2022-08-23T02:25:55.988Z,2.95
2022-08-23T02:30:58.861Z,2.90
2022-08-23T02:36:02.924Z,3.00
2022-08-23T02:41:07.753Z,3.10
2022-08-23T02:46:10.933Z,2.70
2022-08-23T02:51:14.252Z,3.10
2022-08-23T02:56:21.842Z,2.95
2022-08-23T03:01:28.546Z,2.78
2022-08-23T03:06:35.717Z,3.03
2022-08-23T03:11:45.920Z,2.95
2022-08-23T03:16:49.341Z,2.50
2022-08-23T03:21:52.112Z,3.10
2022-08-23T03:26:58.891Z,3.28
2022-08-23T03:32:02.328Z,2.83
2022-08-23T03:37:08.704Z,3.08
2022-08-23T03:42:13.738Z,3.08
2022-08-23T03:47:17.393Z,3.55
2022-08-23T03:52:22.100Z,2.97
2022-08-23T03:57:26.644Z,3.10
2022-08-23T04:02:29.432Z,3.22
2022-08-23T04:07:32.380Z,3.20
2022-08-23T04:12:36.952Z,2.90
2022-08-23T04:17:42.569Z,3.13
2022-08-23T04:22:46.192Z,2.90
2022-08-23T04:27:53.018Z,3.00
2022-08-23T04:32:55.889Z,2.78
2022-08-23T04:37:59.960Z,2.92
2022-08-23T04:43:05.034Z,2.85
2022-08-23T04:48:10.953Z,3.08
2022-08-23T04:53:19.120Z,3.30
2022-08-23T04:58:38.531Z,3.10
2022-08-23T05:03:41.616Z,3.08
2022-08-23T05:08:44.659Z,3.22
2022-08-23T05:13:49.773Z,3.25
2022-08-23T05:18:52.981Z,3.25
2022-08-23T05:23:55.837Z,2.90
2022-08-23T05:29:03.091Z,4.18
2022-08-23T05:34:11.628Z,3.92
2022-08-23T05:39:36.672Z,3.28
2022-08-23T05:44:45.786Z,3.35
2022-08-23T05:49:50.154Z,3.15
2022-08-23T05:54:53.631Z,3.17
2022-08-23T06:00:20.972Z,3.50
2022-08-23T06:05:28.011Z,3.35
2022-08-23T06:10:32.379Z,3.42
2022-08-23T06:15:46.645Z,3.25
2022-08-23T06:20:49.866Z,3.10
2022-08-23T06:26:01.802Z,3.15
2022-08-23T06:31:12.029Z,2.78
2022-08-23T06:36:19.928Z,2.58
2022-08-23T06:41:42.955Z,3.25
2022-08-23T06:47:05.275Z,2.80
2022-08-23T06:52:09.495Z,3.05
2022-08-23T06:57:33.308Z,2.60
2022-08-23T07:02:56.021Z,2.90
2022-08-23T07:08:34.490Z,2.83
2022-08-23T07:13:37.814Z,3.03
2022-08-23T07:18:42.487Z,2.83
2022-08-23T07:23:46.651Z,2.40
2022-08-23T07:28:50.702Z,2.10
2022-08-23T07:33:58.791Z,2.83
2022-08-23T07:39:02.617Z,3.42
2022-08-23T07:44:08.667Z,2.78
2022-08-23T07:49:14.193Z,2.10
2022-08-23T07:54:21.324Z,2.38
2022-08-23T07:59:34.635Z,2.43
2022-08-23T08:04:53.934Z,2.30
2022-08-23T08:09:57.078Z,2.50
2022-08-23T08:15:00.577Z,2.50
2022-08-23T08:20:13.493Z,2.60
2022-08-23T08:25:38.588Z,3.90
2022-08-23T08:30:44.591Z,2.50
2022-08-23T08:35:57.594Z,2.40
2022-08-23T08:41:12.661Z,2.30
2022-08-23T08:46:23.509Z,2.30
2022-08-23T08:51:42.833Z,2.60
2022-08-23T08:56:50.759Z,2.45
2022-08-23T09:02:02.726Z,2.50
2022-08-23T09:07:23.012Z,2.38
2022-08-23T09:12:38.797Z,2.33
2022-08-23T09:17:45.429Z,2.40
2022-08-23T09:22:54.002Z,2.40
2022-08-23T09:28:06.228Z,2.70
2022-08-23T09:33:17.197Z,2.00
2022-08-23T09:38:22.079Z,2.53
2022-08-23T09:43:48.197Z,2.40
2022-08-23T09:48:55.189Z,2.20
2022-08-23T09:54:11.571Z,2.45
2022-08-23T09:59:26.934Z,2.58
2022-08-23T10:04:42.370Z,2.67
2022-08-23T10:09:48.673Z,2.22
2022-08-23T10:14:52.128Z,2.25
2022-08-23T10:20:13.836Z,2.05
2022-08-23T10:30:37.162Z,1.90
2022-08-23T10:35:47.860Z,2.35
2022-08-23T10:41:02.969Z,2.00
2022-08-23T10:46:08.677Z,2.05
2022-08-23T10:51:22.692Z,2.00
2022-08-23T10:56:37.492Z,2.20
2022-08-23T11:01:54.342Z,1.90
2022-08-23T11:07:00.237Z,1.98
2022-08-23T11:12:21.604Z,1.98
2022-08-23T11:17:29.749Z,2.40
2022-08-23T11:22:34.314Z,2.20
2022-08-23T11:27:41.453Z,2.10
2022-08-23T11:32:50.228Z,2.00
2022-08-23T11:38:02.306Z,1.85
2022-08-23T11:43:21.493Z,2.50
2022-08-23T11:48:43.386Z,2.20
2022-08-23T11:54:35.625Z,2.15
2022-08-23T12:00:22.710Z,2.28
2022-08-23T12:06:08.278Z,2.05
2022-08-23T12:11:12.158Z,2.10
2022-08-23T12:16:38.194Z,2.20
2022-08-23T12:21:50.069Z,2.10
2022-08-23T12:27:03.745Z,2.35
2022-08-23T12:32:20.420Z,2.40
2022-08-23T12:37:33.869Z,2.20
2022-08-23T12:42:38.829Z,2.03
2022-08-23T12:47:45.400Z,1.90
2022-08-23T12:52:58.410Z,2.10
2022-08-23T12:58:02.061Z,2.10
2022-08-23T13:03:12.375Z,2.50
2022-08-23T13:08:19.149Z,2.78
2022-08-23T13:13:28.903Z,2.00
2022-08-23T13:18:42.612Z,2.58
2022-08-23T13:23:45.658Z,2.20
2022-08-23T13:29:06.161Z,2.13
2022-08-23T13:34:10.313Z,2.50
2022-08-23T13:39:14.513Z,2.30
2022-08-23T13:44:21.060Z,2.38
2022-08-23T13:49:29.388Z,2.40
2022-08-23T13:54:33.664Z,1.80
2022-08-23T13:59:40.082Z,2.33
2022-08-23T14:04:44.967Z,2.28
2022-08-23T14:09:50.115Z,2.45
2022-08-23T14:14:55.165Z,2.50
2022-08-23T14:25:22.139Z,2.25
2022-08-23T14:30:29.779Z,2.20
2022-08-23T14:35:34.064Z,2.45
2022-08-23T14:40:37.585Z,2.50
2022-08-23T14:45:40.654Z,2.40
2022-08-23T14:50:46.148Z,2.17
2022-08-23T14:56:01.114Z,2.38
2022-08-23T15:01:14.055Z,2.30
2022-08-23T15:06:20.738Z,2.30
2022-08-23T15:16:47.070Z,2.05
2022-08-23T15:21:51.250Z,2.00
2022-08-23T15:26:59.551Z,1.98
2022-08-23T15:32:02.345Z,2.38
2022-08-23T15:37:06.544Z,2.25
2022-08-23T15:42:09.552Z,2.35
2022-08-23T15:47:19.326Z,2.20
2022-08-23T15:52:23.624Z,2.08
2022-08-23T15:57:29.108Z,2.42
2022-08-23T16:02:51.074Z,2.30
2022-08-23T16:07:59.621Z,2.22
2022-08-23T16:13:03.666Z,2.35
2022-08-23T16:18:06.852Z,2.40
2022-08-23T16:23:11.422Z,2.30
2022-08-23T16:28:14.317Z,2.42
2022-08-23T16:33:17.141Z,2.40
2022-08-23T16:38:21.360Z,2.38
2022-08-23T16:43:24.139Z,2.42
2022-08-23T16:48:26.945Z,2.30
2022-08-23T16:53:31.177Z,2.65
2022-08-23T16:58:34.932Z,2.13
2022-08-23T17:03:37.870Z,2.28
2022-08-23T17:08:42.101Z,2.30
2022-08-23T17:13:45.294Z,2.10
2022-08-23T17:18:48.557Z,1.95
2022-08-23T17:23:58.579Z,1.98
2022-08-23T17:29:01.952Z,2.60
2022-08-23T17:34:04.877Z,2.20
2022-08-23T17:39:11.883Z,2.15
2022-08-23T17:44:15.308Z,2.40
2022-08-23T17:49:21.184Z,2.40
2022-08-23T17:54:25.341Z,2.03
2022-08-23T17:59:28.780Z,2.42
2022-08-23T18:04:31.941Z,2.40
2022-08-23T18:09:40.110Z,2.30
2022-08-23T18:14:51.938Z,2.50
2022-08-23T18:19:54.941Z,2.50
2022-08-23T18:24:59.099Z,3.03
2022-08-23T18:30:01.921Z,2.30
2022-08-23T18:35:06.251Z,2.38
2022-08-23T18:40:12.128Z,2.33
2022-08-23T18:45:15.060Z,1.80
2022-08-23T18:50:19.530Z,2.22
2022-08-23T18:55:23.870Z,1.90
2022-08-23T19:00:26.675Z,2.00
2022-08-23T19:05:42.147Z,1.67
2022-08-23T19:10:47.408Z,1.92
2022-08-23T19:15:52.497Z,1.58
2022-08-23T19:20:55.814Z,1.80
2022-08-23T19:26:00.432Z,1.50
2022-08-23T19:31:03.209Z,1.73
2022-08-23T19:36:06.552Z,1.80
2022-08-23T19:41:10.804Z,1.92
2022-08-23T19:46:16.123Z,1.70
2022-08-23T19:51:20.865Z,1.58
2022-08-23T19:56:25.033Z,1.75
2022-08-23T20:01:30.177Z,1.80
2022-08-23T20:06:34.357Z,1.80
2022-08-23T20:11:39.645Z,1.60
2022-08-23T20:16:43.052Z,2.28
2022-08-23T20:21:45.876Z,2.00
2022-08-23T20:26:50.956Z,1.70
2022-08-23T20:31:56.302Z,2.10
2022-08-23T20:36:59.146Z,2.00
2022-08-23T20:42:03.535Z,2.10
2022-08-23T20:47:11.279Z,1.60
2022-08-23T20:52:14.228Z,1.40
2022-08-23T20:57:18.525Z,1.98
2022-08-23T21:02:21.374Z,2.00
2022-08-23T21:07:24.174Z,1.80
2022-08-23T21:12:32.368Z,1.50
2022-08-23T21:17:35.315Z,2.30
2022-08-23T21:22:38.171Z,1.75
2022-08-23T21:27:42.410Z,1.35
2022-08-23T21:32:45.504Z,2.05
2022-08-23T21:37:48.373Z,2.13
2022-08-23T21:42:52.685Z,1.90
2022-08-23T21:47:55.671Z,1.90
2022-08-23T21:52:58.738Z,2.17
2022-08-23T21:58:02.910Z,1.90
2022-08-23T22:03:06.709Z,1.73
2022-08-23T22:08:10.247Z,1.88
2022-08-23T22:13:18.463Z,1.90
2022-08-23T22:18:21.316Z,1.92
2022-08-23T22:23:24.102Z,1.98
2022-08-23T22:28:31.329Z,2.35
2022-08-23T22:33:35.524Z,1.85
2022-08-23T22:38:39.704Z,1.50
2022-08-23T22:43:44.088Z,2.03
2022-08-23T22:48:48.210Z,1.63
2022-08-23T22:53:53.459Z,1.70
2022-08-23T22:58:58.638Z,1.50
2022-08-23T23:04:03.361Z,1.75
2022-08-23T23:09:07.935Z,2.05
2022-08-23T23:14:16.173Z,1.98
2022-08-23T23:19:36.584Z,1.90
2022-08-23T23:24:41.009Z,1.88
2022-08-23T23:29:45.182Z,1.67
2022-08-23T23:34:48.318Z,1.63
2022-08-23T23:39:51.187Z,1.75
2022-08-23T23:44:55.339Z,1.90
2022-08-23T23:49:58.557Z,1.67
2022-08-23T23:55:03.157Z,1.90
